sensor_id;sensor_type;location;lat;lon;timestamp;temperature;humidity
19044;DHT22;9654;52.302;8.120;2023-03-01T00:01:25;-3.00;99.90
19044;DHT22;9654;52.302;8.120;2023-03-01T00:03:53;-3.00;99.90
19044;DHT22;9654;52.302;8.120;2023-03-01T00:06:22;-3.00;99.90
19044;DHT22;9654;52.302;8.120;2023-03-01T00:08:49;-3.10;99.90
19044;DHT22;9654;52.302;8.120;2023-03-01T00:11:18;-3.10;99.90
19044;DHT22;9654;52.302;8.120;2023-03-01T00:13:46;-3.10;99.90
19044;DHT22;9654;52.302;8.120;2023-03-01T00:16:15;-3.20;99.90
19044;DHT22;9654;52.302;8.120;2023-03-01T00:18:42;-3.20;99.90
19044;DHT22;9654;52.302;8.120;2023-03-01T00:21:09;-3.20;99.90
19044;DHT22;9654;52.302;8.120;2023-03-01T00:23:37;-3.30;99.90
19044;DHT22;9654;52.302;8.120;2023-03-01T00:26:06;-3.30;99.90
19044;DHT22;9654;52.302;8.120;2023-03-01T00:28:33;-3.40;99.90
19044;DHT22;9654;52.302;8.120;2023-03-01T00:31:03;-3.40;99.90
19044;DHT22;9654;52.302;8.120;2023-03-01T00:33:30;-3.40;99.90
19044;DHT22;9654;52.302;8.120;2023-03-01T00:35:58;-3.40;99.90
19044;DHT22;9654;52.302;8.120;2023-03-01T00:38:25;-3.50;99.90
19044;DHT22;9654;52.302;8.120;2023-03-01T00:40:53;-3.50;99.90
19044;DHT22;9654;52.302;8.120;2023-03-01T00:43:20;-3.60;99.90
19044;DHT22;9654;52.302;8.120;2023-03-01T00:45:47;-3.50;99.90
19044;DHT22;9654;52.302;8.120;2023-03-01T00:48:14;-3.60;99.90
19044;DHT22;9654;52.302;8.120;2023-03-01T00:50:40;-3.60;99.90
19044;DHT22;9654;52.302;8.120;2023-03-01T00:53:07;-3.70;99.90
19044;DHT22;9654;52.302;8.120;2023-03-01T00:55:36;-3.70;99.90
19044;DHT22;9654;52.302;8.120;2023-03-01T00:58:04;-3.70;99.90
19044;DHT22;9654;52.302;8.120;2023-03-01T01:00:31;-3.70;99.90
19044;DHT22;9654;52.302;8.120;2023-03-01T01:02:57;-3.80;99.90
19044;DHT22;9654;52.302;8.120;2023-03-01T01:05:24;-3.80;99.90
19044;DHT22;9654;52.302;8.120;2023-03-01T01:07:51;-3.80;99.90
19044;DHT22;9654;52.302;8.120;2023-03-01T01:10:18;-3.90;99.90
19044;DHT22;9654;52.302;8.120;2023-03-01T01:12:46;-3.90;99.90
19044;DHT22;9654;52.302;8.120;2023-03-01T01:15:14;-4.00;99.90
19044;DHT22;9654;52.302;8.120;2023-03-01T01:17:42;-4.00;99.90
19044;DHT22;9654;52.302;8.120;2023-03-01T01:20:10;-4.10;99.90
19044;DHT22;9654;52.302;8.120;2023-03-01T01:22:36;-4.10;99.90
19044;DHT22;9654;52.302;8.120;2023-03-01T01:25:04;-4.10;99.90
19044;DHT22;9654;52.302;8.120;2023-03-01T01:27:30;-4.10;99.90
19044;DHT22;9654;52.302;8.120;2023-03-01T01:29:57;-4.20;99.90
19044;DHT22;9654;52.302;8.120;2023-03-01T01:32:25;-4.20;99.90
19044;DHT22;9654;52.302;8.120;2023-03-01T01:34:52;-4.30;99.90
19044;DHT22;9654;52.302;8.120;2023-03-01T01:37:19;-4.30;99.90
19044;DHT22;9654;52.302;8.120;2023-03-01T01:39:46;-4.30;99.90
19044;DHT22;9654;52.302;8.120;2023-03-01T01:42:15;-4.30;99.90
19044;DHT22;9654;52.302;8.120;2023-03-01T01:44:46;-4.30;99.90
19044;DHT22;9654;52.302;8.120;2023-03-01T01:47:16;-4.40;99.90
19044;DHT22;9654;52.302;8.120;2023-03-01T01:49:48;-4.40;99.90
19044;DHT22;9654;52.302;8.120;2023-03-01T01:52:18;-4.50;99.90
19044;DHT22;9654;52.302;8.120;2023-03-01T01:54:50;-4.50;99.90
19044;DHT22;9654;52.302;8.120;2023-03-01T01:57:20;-4.50;99.90
19044;DHT22;9654;52.302;8.120;2023-03-01T01:59:50;-4.50;99.90
19044;DHT22;9654;52.302;8.120;2023-03-01T02:02:19;-4.50;99.90
19044;DHT22;9654;52.302;8.120;2023-03-01T02:04:47;-4.50;99.90
19044;DHT22;9654;52.302;8.120;2023-03-01T02:07:17;-4.60;99.90
19044;DHT22;9654;52.302;8.120;2023-03-01T02:09:46;-4.60;99.90
19044;DHT22;9654;52.302;8.120;2023-03-01T02:12:14;-4.70;99.90
19044;DHT22;9654;52.302;8.120;2023-03-01T02:14:41;-4.70;99.90
19044;DHT22;9654;52.302;8.120;2023-03-01T02:17:08;-4.80;99.90
19044;DHT22;9654;52.302;8.120;2023-03-01T02:19:44;-4.80;99.90
19044;DHT22;9654;52.302;8.120;2023-03-01T02:22:20;-4.80;99.90
19044;DHT22;9654;52.302;8.120;2023-03-01T02:24:55;-4.90;99.90
19044;DHT22;9654;52.302;8.120;2023-03-01T02:27:33;-4.90;99.90
19044;DHT22;9654;52.302;8.120;2023-03-01T02:30:05;-5.00;99.90
19044;DHT22;9654;52.302;8.120;2023-03-01T02:32:33;-5.00;99.90
19044;DHT22;9654;52.302;8.120;2023-03-01T02:34:59;-5.00;99.90
19044;DHT22;9654;52.302;8.120;2023-03-01T02:37:27;-4.90;99.90
19044;DHT22;9654;52.302;8.120;2023-03-01T02:39:58;-4.90;99.90
19044;DHT22;9654;52.302;8.120;2023-03-01T02:42:30;-4.90;99.90
19044;DHT22;9654;52.302;8.120;2023-03-01T02:44:59;-4.90;99.90
19044;DHT22;9654;52.302;8.120;2023-03-01T02:47:27;-4.90;99.90
19044;DHT22;9654;52.302;8.120;2023-03-01T02:49:54;-4.90;99.90
19044;DHT22;9654;52.302;8.120;2023-03-01T02:52:29;-5.00;99.90
19044;DHT22;9654;52.302;8.120;2023-03-01T02:55:02;-5.00;99.90
19044;DHT22;9654;52.302;8.120;2023-03-01T02:57:31;-5.10;99.90
19044;DHT22;9654;52.302;8.120;2023-03-01T03:00:02;-5.10;99.90
19044;DHT22;9654;52.302;8.120;2023-03-01T03:02:34;-5.20;99.90
19044;DHT22;9654;52.302;8.120;2023-03-01T03:05:07;-5.20;99.90
19044;DHT22;9654;52.302;8.120;2023-03-01T03:07:35;-5.30;99.90
19044;DHT22;9654;52.302;8.120;2023-03-01T03:10:04;-5.30;99.90
19044;DHT22;9654;52.302;8.120;2023-03-01T03:12:31;-5.20;99.90
19044;DHT22;9654;52.302;8.120;2023-03-01T03:14:58;-5.30;99.90
19044;DHT22;9654;52.302;8.120;2023-03-01T03:17:25;-5.30;99.90
19044;DHT22;9654;52.302;8.120;2023-03-01T03:19:53;-5.30;99.90
19044;DHT22;9654;52.302;8.120;2023-03-01T03:22:20;-5.30;99.90
19044;DHT22;9654;52.302;8.120;2023-03-01T03:24:47;-5.40;99.90
19044;DHT22;9654;52.302;8.120;2023-03-01T03:27:13;-5.40;99.90
19044;DHT22;9654;52.302;8.120;2023-03-01T03:29:40;-5.40;99.90
19044;DHT22;9654;52.302;8.120;2023-03-01T03:32:07;-5.40;99.90
19044;DHT22;9654;52.302;8.120;2023-03-01T03:34:35;-5.40;99.90
19044;DHT22;9654;52.302;8.120;2023-03-01T03:37:03;-5.50;99.90
19044;DHT22;9654;52.302;8.120;2023-03-01T03:39:50;-5.50;99.90
19044;DHT22;9654;52.302;8.120;2023-03-01T03:42:20;-5.50;99.90
19044;DHT22;9654;52.302;8.120;2023-03-01T03:44:47;-5.50;99.90
19044;DHT22;9654;52.302;8.120;2023-03-01T03:47:14;-5.60;99.90
19044;DHT22;9654;52.302;8.120;2023-03-01T03:49:40;-5.60;99.90
19044;DHT22;9654;52.302;8.120;2023-03-01T03:52:08;-5.60;99.90
19044;DHT22;9654;52.302;8.120;2023-03-01T03:54:39;-5.60;99.90
19044;DHT22;9654;52.302;8.120;2023-03-01T03:57:06;-5.60;99.90
19044;DHT22;9654;52.302;8.120;2023-03-01T03:59:32;-5.50;99.90
19044;DHT22;9654;52.302;8.120;2023-03-01T04:01:59;-5.50;99.90
19044;DHT22;9654;52.302;8.120;2023-03-01T04:04:26;-5.50;99.90
19044;DHT22;9654;52.302;8.120;2023-03-01T04:06:53;-5.50;99.90
19044;DHT22;9654;52.302;8.120;2023-03-01T04:09:21;-5.50;99.90
19044;DHT22;9654;52.302;8.120;2023-03-01T04:11:48;-5.50;99.90
19044;DHT22;9654;52.302;8.120;2023-03-01T04:14:14;-5.60;99.90
19044;DHT22;9654;52.302;8.120;2023-03-01T04:16:41;-5.60;99.90
19044;DHT22;9654;52.302;8.120;2023-03-01T04:19:08;-5.60;99.90
19044;DHT22;9654;52.302;8.120;2023-03-01T04:21:35;-5.70;99.90
19044;DHT22;9654;52.302;8.120;2023-03-01T04:24:03;-5.70;99.90
19044;DHT22;9654;52.302;8.120;2023-03-01T04:26:31;-5.70;99.90
19044;DHT22;9654;52.302;8.120;2023-03-01T04:28:57;-5.70;99.90
19044;DHT22;9654;52.302;8.120;2023-03-01T04:31:24;-5.60;99.90
19044;DHT22;9654;52.302;8.120;2023-03-01T04:33:52;-5.60;99.90
19044;DHT22;9654;52.302;8.120;2023-03-01T04:36:21;-5.50;99.90
19044;DHT22;9654;52.302;8.120;2023-03-01T04:38:49;-5.50;99.90
19044;DHT22;9654;52.302;8.120;2023-03-01T04:41:18;-5.50;99.90
19044;DHT22;9654;52.302;8.120;2023-03-01T04:43:46;-5.60;99.90
19044;DHT22;9654;52.302;8.120;2023-03-01T04:46:15;-5.70;99.90
19044;DHT22;9654;52.302;8.120;2023-03-01T04:48:43;-5.70;99.90
19044;DHT22;9654;52.302;8.120;2023-03-01T04:51:11;-5.80;99.90
19044;DHT22;9654;52.302;8.120;2023-03-01T04:53:39;-5.80;99.90
19044;DHT22;9654;52.302;8.120;2023-03-01T04:56:07;-5.90;99.90
19044;DHT22;9654;52.302;8.120;2023-03-01T04:58:34;-5.90;99.90
19044;DHT22;9654;52.302;8.120;2023-03-01T05:01:08;-5.90;99.90
19044;DHT22;9654;52.302;8.120;2023-03-01T05:03:41;-6.00;99.90
19044;DHT22;9654;52.302;8.120;2023-03-01T05:06:08;-6.00;99.90
19044;DHT22;9654;52.302;8.120;2023-03-01T05:08:36;-6.00;99.90
19044;DHT22;9654;52.302;8.120;2023-03-01T05:11:03;-6.00;99.90
19044;DHT22;9654;52.302;8.120;2023-03-01T05:13:30;-6.00;99.90
19044;DHT22;9654;52.302;8.120;2023-03-01T05:15:59;-6.00;99.90
19044;DHT22;9654;52.302;8.120;2023-03-01T05:18:28;-6.00;99.90
19044;DHT22;9654;52.302;8.120;2023-03-01T05:21:03;-5.90;99.90
19044;DHT22;9654;52.302;8.120;2023-03-01T05:23:31;-5.90;99.90
19044;DHT22;9654;52.302;8.120;2023-03-01T05:25:57;-5.90;99.90
19044;DHT22;9654;52.302;8.120;2023-03-01T05:28:25;-5.90;99.90
19044;DHT22;9654;52.302;8.120;2023-03-01T05:30:53;-6.00;99.90
19044;DHT22;9654;52.302;8.120;2023-03-01T05:33:20;-6.00;99.90
19044;DHT22;9654;52.302;8.120;2023-03-01T05:35:50;-6.10;99.90
19044;DHT22;9654;52.302;8.120;2023-03-01T05:38:18;-6.10;99.90
19044;DHT22;9654;52.302;8.120;2023-03-01T05:40:47;-6.10;99.90
19044;DHT22;9654;52.302;8.120;2023-03-01T05:43:15;-6.10;99.90
19044;DHT22;9654;52.302;8.120;2023-03-01T05:45:43;-6.00;99.90
19044;DHT22;9654;52.302;8.120;2023-03-01T05:48:11;-6.00;99.90
19044;DHT22;9654;52.302;8.120;2023-03-01T05:50:39;-6.00;99.90
19044;DHT22;9654;52.302;8.120;2023-03-01T05:53:10;-5.90;99.90
19044;DHT22;9654;52.302;8.120;2023-03-01T05:55:38;-5.90;99.90
19044;DHT22;9654;52.302;8.120;2023-03-01T05:58:06;-5.90;99.90
19044;DHT22;9654;52.302;8.120;2023-03-01T06:00:35;-5.90;99.90
19044;DHT22;9654;52.302;8.120;2023-03-01T06:03:02;-6.00;99.90
19044;DHT22;9654;52.302;8.120;2023-03-01T06:05:30;-6.00;99.90
19044;DHT22;9654;52.302;8.120;2023-03-01T06:07:59;-6.10;99.90
19044;DHT22;9654;52.302;8.120;2023-03-01T06:10:27;-6.10;99.90
19044;DHT22;9654;52.302;8.120;2023-03-01T06:12:54;-6.20;99.90
19044;DHT22;9654;52.302;8.120;2023-03-01T06:15:21;-6.20;99.90
19044;DHT22;9654;52.302;8.120;2023-03-01T06:17:49;-6.20;99.90
19044;DHT22;9654;52.302;8.120;2023-03-01T06:20:18;-6.20;99.90
19044;DHT22;9654;52.302;8.120;2023-03-01T06:22:45;-6.20;99.90
19044;DHT22;9654;52.302;8.120;2023-03-01T06:25:14;-6.20;99.90
19044;DHT22;9654;52.302;8.120;2023-03-01T06:27:42;-6.30;99.90
19044;DHT22;9654;52.302;8.120;2023-03-01T06:30:11;-6.30;99.90
19044;DHT22;9654;52.302;8.120;2023-03-01T06:32:39;-6.30;99.90
19044;DHT22;9654;52.302;8.120;2023-03-01T06:35:08;-6.30;99.90
19044;DHT22;9654;52.302;8.120;2023-03-01T06:37:35;-6.20;99.90
19044;DHT22;9654;52.302;8.120;2023-03-01T06:40:02;-6.20;99.90
19044;DHT22;9654;52.302;8.120;2023-03-01T06:42:33;-6.20;99.90
19044;DHT22;9654;52.302;8.120;2023-03-01T06:45:02;-6.10;99.90
19044;DHT22;9654;52.302;8.120;2023-03-01T06:47:29;-6.10;99.90
19044;DHT22;9654;52.302;8.120;2023-03-01T06:49:56;-6.00;99.90
19044;DHT22;9654;52.302;8.120;2023-03-01T06:52:23;-5.80;99.90
19044;DHT22;9654;52.302;8.120;2023-03-01T06:54:49;-5.70;99.90
19044;DHT22;9654;52.302;8.120;2023-03-01T06:57:16;-5.60;99.90
19044;DHT22;9654;52.302;8.120;2023-03-01T06:59:43;-5.40;99.90
19044;DHT22;9654;52.302;8.120;2023-03-01T07:02:12;-5.30;99.90
19044;DHT22;9654;52.302;8.120;2023-03-01T07:04:39;-5.10;99.90
19044;DHT22;9654;52.302;8.120;2023-03-01T07:07:06;-5.00;99.90
19044;DHT22;9654;52.302;8.120;2023-03-01T07:09:32;-4.80;99.90
19044;DHT22;9654;52.302;8.120;2023-03-01T07:11:59;-4.60;99.90
19044;DHT22;9654;52.302;8.120;2023-03-01T07:14:26;-4.50;99.90
19044;DHT22;9654;52.302;8.120;2023-03-01T07:16:53;-4.30;99.90
19044;DHT22;9654;52.302;8.120;2023-03-01T07:19:24;-4.10;99.90
19044;DHT22;9654;52.302;8.120;2023-03-01T07:21:51;-3.80;99.90
19044;DHT22;9654;52.302;8.120;2023-03-01T07:24:18;-3.60;99.90
19044;DHT22;9654;52.302;8.120;2023-03-01T07:26:48;-3.30;99.90
19044;DHT22;9654;52.302;8.120;2023-03-01T07:29:15;-3.10;99.90
19044;DHT22;9654;52.302;8.120;2023-03-01T07:31:42;-3.00;99.90
19044;DHT22;9654;52.302;8.120;2023-03-01T07:34:08;-2.80;99.90
19044;DHT22;9654;52.302;8.120;2023-03-01T07:36:37;-2.70;99.90
19044;DHT22;9654;52.302;8.120;2023-03-01T07:39:05;-2.60;99.90
19044;DHT22;9654;52.302;8.120;2023-03-01T07:41:31;-2.50;99.90
19044;DHT22;9654;52.302;8.120;2023-03-01T07:43:58;-2.30;99.90
19044;DHT22;9654;52.302;8.120;2023-03-01T07:46:25;-2.20;99.90
19044;DHT22;9654;52.302;8.120;2023-03-01T07:48:52;-2.10;99.90
19044;DHT22;9654;52.302;8.120;2023-03-01T07:51:19;-1.90;99.90
19044;DHT22;9654;52.302;8.120;2023-03-01T07:53:47;-1.80;99.90
19044;DHT22;9654;52.302;8.120;2023-03-01T07:56:15;-1.60;99.90
19044;DHT22;9654;52.302;8.120;2023-03-01T07:58:44;-1.40;99.90
19044;DHT22;9654;52.302;8.120;2023-03-01T08:01:13;-1.30;99.90
19044;DHT22;9654;52.302;8.120;2023-03-01T08:03:40;-1.20;99.90
19044;DHT22;9654;52.302;8.120;2023-03-01T08:06:09;-1.20;99.90
19044;DHT22;9654;52.302;8.120;2023-03-01T08:08:37;-1.00;99.90
19044;DHT22;9654;52.302;8.120;2023-03-01T08:11:06;-0.90;99.90
19044;DHT22;9654;52.302;8.120;2023-03-01T08:13:33;-0.80;99.90
19044;DHT22;9654;52.302;8.120;2023-03-01T08:16:02;-0.60;99.90
19044;DHT22;9654;52.302;8.120;2023-03-01T08:18:29;-0.50;99.90
19044;DHT22;9654;52.302;8.120;2023-03-01T08:20:55;-0.30;99.90
19044;DHT22;9654;52.302;8.120;2023-03-01T08:23:22;-0.20;99.90
19044;DHT22;9654;52.302;8.120;2023-03-01T08:25:49;-0.10;99.90
19044;DHT22;9654;52.302;8.120;2023-03-01T08:28:17;0.10;99.90
19044;DHT22;9654;52.302;8.120;2023-03-01T08:30:44;0.20;99.90
19044;DHT22;9654;52.302;8.120;2023-03-01T08:33:10;0.40;99.90
19044;DHT22;9654;52.302;8.120;2023-03-01T08:35:37;0.50;99.90
19044;DHT22;9654;52.302;8.120;2023-03-01T08:38:04;0.70;99.90
19044;DHT22;9654;52.302;8.120;2023-03-01T08:40:31;0.90;99.90
19044;DHT22;9654;52.302;8.120;2023-03-01T08:42:57;1.00;99.90
19044;DHT22;9654;52.302;8.120;2023-03-01T08:45:26;1.20;99.90
19044;DHT22;9654;52.302;8.120;2023-03-01T08:47:52;1.30;99.90
19044;DHT22;9654;52.302;8.120;2023-03-01T08:50:19;1.50;99.90
19044;DHT22;9654;52.302;8.120;2023-03-01T08:52:46;1.60;99.90
19044;DHT22;9654;52.302;8.120;2023-03-01T08:55:13;1.70;99.90
19044;DHT22;9654;52.302;8.120;2023-03-01T08:57:41;1.70;99.90
19044;DHT22;9654;52.302;8.120;2023-03-01T09:00:09;1.80;99.90
19044;DHT22;9654;52.302;8.120;2023-03-01T09:02:41;1.80;99.90
19044;DHT22;9654;52.302;8.120;2023-03-01T09:05:09;1.80;99.90
19044;DHT22;9654;52.302;8.120;2023-03-01T09:07:35;1.90;99.90
19044;DHT22;9654;52.302;8.120;2023-03-01T09:10:03;2.00;99.90
19044;DHT22;9654;52.302;8.120;2023-03-01T09:12:30;2.10;99.90
19044;DHT22;9654;52.302;8.120;2023-03-01T09:14:57;2.10;99.90
19044;DHT22;9654;52.302;8.120;2023-03-01T09:17:24;2.20;99.90
19044;DHT22;9654;52.302;8.120;2023-03-01T09:19:52;2.30;99.90
19044;DHT22;9654;52.302;8.120;2023-03-01T09:22:18;2.40;99.90
19044;DHT22;9654;52.302;8.120;2023-03-01T09:24:45;2.50;99.90
19044;DHT22;9654;52.302;8.120;2023-03-01T09:27:12;2.60;99.90
19044;DHT22;9654;52.302;8.120;2023-03-01T09:29:40;2.60;99.90
19044;DHT22;9654;52.302;8.120;2023-03-01T09:32:07;2.60;99.90
19044;DHT22;9654;52.302;8.120;2023-03-01T09:34:34;2.60;99.90
19044;DHT22;9654;52.302;8.120;2023-03-01T09:37:22;2.70;99.90
19044;DHT22;9654;52.302;8.120;2023-03-01T09:39:49;2.80;99.90
19044;DHT22;9654;52.302;8.120;2023-03-01T09:42:16;2.80;99.90
19044;DHT22;9654;52.302;8.120;2023-03-01T09:44:47;2.80;99.90
19044;DHT22;9654;52.302;8.120;2023-03-01T09:47:18;2.90;99.90
19044;DHT22;9654;52.302;8.120;2023-03-01T09:49:51;2.90;99.90
19044;DHT22;9654;52.302;8.120;2023-03-01T09:52:27;3.00;99.90
19044;DHT22;9654;52.302;8.120;2023-03-01T09:54:56;3.10;99.90
19044;DHT22;9654;52.302;8.120;2023-03-01T09:57:28;3.20;99.90
19044;DHT22;9654;52.302;8.120;2023-03-01T10:00:03;3.30;99.90
19044;DHT22;9654;52.302;8.120;2023-03-01T10:02:41;3.30;99.90
19044;DHT22;9654;52.302;8.120;2023-03-01T10:05:33;3.30;99.90
19044;DHT22;9654;52.302;8.120;2023-03-01T10:08:19;3.20;99.90
19044;DHT22;9654;52.302;8.120;2023-03-01T10:10:51;3.30;99.90
19044;DHT22;9654;52.302;8.120;2023-03-01T10:13:24;3.50;99.90
19044;DHT22;9654;52.302;8.120;2023-03-01T10:15:55;3.60;99.90
19044;DHT22;9654;52.302;8.120;2023-03-01T10:18:26;3.60;99.90
19044;DHT22;9654;52.302;8.120;2023-03-01T10:20:57;3.70;99.90
19044;DHT22;9654;52.302;8.120;2023-03-01T10:23:28;3.80;99.90
19044;DHT22;9654;52.302;8.120;2023-03-01T10:26:09;3.80;99.90
19044;DHT22;9654;52.302;8.120;2023-03-01T10:28:47;3.80;99.90
19044;DHT22;9654;52.302;8.120;2023-03-01T10:31:21;3.90;99.90
19044;DHT22;9654;52.302;8.120;2023-03-01T10:33:53;4.00;99.90
19044;DHT22;9654;52.302;8.120;2023-03-01T10:36:22;4.00;99.90
19044;DHT22;9654;52.302;8.120;2023-03-01T10:38:53;4.00;99.90
19044;DHT22;9654;52.302;8.120;2023-03-01T10:41:20;3.80;99.90
19044;DHT22;9654;52.302;8.120;2023-03-01T10:43:51;3.70;99.90
19044;DHT22;9654;52.302;8.120;2023-03-01T10:46:26;3.70;99.90
19044;DHT22;9654;52.302;8.120;2023-03-01T10:49:13;3.60;99.90
19044;DHT22;9654;52.302;8.120;2023-03-01T10:51:41;3.60;99.90
19044;DHT22;9654;52.302;8.120;2023-03-01T10:54:18;3.70;99.90
19044;DHT22;9654;52.302;8.120;2023-03-01T10:56:47;3.90;99.90
19044;DHT22;9654;52.302;8.120;2023-03-01T10:59:22;3.90;99.90
19044;DHT22;9654;52.302;8.120;2023-03-01T11:02:13;3.80;99.90
19044;DHT22;9654;52.302;8.120;2023-03-01T11:04:56;3.80;99.90
19044;DHT22;9654;52.302;8.120;2023-03-01T11:07:23;3.80;99.90
19044;DHT22;9654;52.302;8.120;2023-03-01T11:09:51;3.90;99.90
19044;DHT22;9654;52.302;8.120;2023-03-01T11:12:19;4.10;99.90
19044;DHT22;9654;52.302;8.120;2023-03-01T11:14:47;4.20;99.90
19044;DHT22;9654;52.302;8.120;2023-03-01T11:17:18;4.20;99.90
19044;DHT22;9654;52.302;8.120;2023-03-01T11:20:00;4.20;99.90
19044;DHT22;9654;52.302;8.120;2023-03-01T11:22:28;4.20;99.90
19044;DHT22;9654;52.302;8.120;2023-03-01T11:24:56;4.20;99.90
19044;DHT22;9654;52.302;8.120;2023-03-01T11:27:26;4.40;99.90
19044;DHT22;9654;52.302;8.120;2023-03-01T11:29:57;4.70;99.90
19044;DHT22;9654;52.302;8.120;2023-03-01T11:32:31;4.80;99.90
19044;DHT22;9654;52.302;8.120;2023-03-01T11:35:05;4.70;99.90
19044;DHT22;9654;52.302;8.120;2023-03-01T11:37:39;4.60;99.90
19044;DHT22;9654;52.302;8.120;2023-03-01T11:40:14;4.60;99.90
19044;DHT22;9654;52.302;8.120;2023-03-01T11:42:54;4.60;99.90
19044;DHT22;9654;52.302;8.120;2023-03-01T11:45:24;4.60;99.90
19044;DHT22;9654;52.302;8.120;2023-03-01T11:48:03;4.70;99.90
19044;DHT22;9654;52.302;8.120;2023-03-01T11:50:40;4.90;99.90
19044;DHT22;9654;52.302;8.120;2023-03-01T11:53:26;5.10;99.90
19044;DHT22;9654;52.302;8.120;2023-03-01T11:56:07;5.40;99.90
19044;DHT22;9654;52.302;8.120;2023-03-01T11:58:54;5.40;99.90
19044;DHT22;9654;52.302;8.120;2023-03-01T12:01:40;5.30;99.90
19044;DHT22;9654;52.302;8.120;2023-03-01T12:04:36;5.20;99.90
19044;DHT22;9654;52.302;8.120;2023-03-01T12:07:18;5.10;99.90
19044;DHT22;9654;52.302;8.120;2023-03-01T12:12:46;5.00;99.90
19044;DHT22;9654;52.302;8.120;2023-03-01T12:15:47;4.90;99.90
19044;DHT22;9654;52.302;8.120;2023-03-01T12:18:35;5.10;99.90
19044;DHT22;9654;52.302;8.120;2023-03-01T12:21:15;5.20;99.90
19044;DHT22;9654;52.302;8.120;2023-03-01T12:24:02;5.20;99.90
19044;DHT22;9654;52.302;8.120;2023-03-01T12:26:33;5.10;99.90
19044;DHT22;9654;52.302;8.120;2023-03-01T12:29:20;5.10;99.90
19044;DHT22;9654;52.302;8.120;2023-03-01T12:32:04;5.20;99.90
19044;DHT22;9654;52.302;8.120;2023-03-01T12:37:54;5.20;99.90
19044;DHT22;9654;52.302;8.120;2023-03-01T12:40:32;5.30;99.90
19044;DHT22;9654;52.302;8.120;2023-03-01T12:43:08;5.20;99.90
19044;DHT22;9654;52.302;8.120;2023-03-01T12:48:46;5.30;99.90
19044;DHT22;9654;52.302;8.120;2023-03-01T12:51:20;5.30;99.90
19044;DHT22;9654;52.302;8.120;2023-03-01T12:53:50;5.30;99.90
19044;DHT22;9654;52.302;8.120;2023-03-01T12:56:20;5.30;99.90
19044;DHT22;9654;52.302;8.120;2023-03-01T12:58:54;5.40;99.90
19044;DHT22;9654;52.302;8.120;2023-03-01T13:01:33;5.50;99.90
19044;DHT22;9654;52.302;8.120;2023-03-01T13:07:06;5.80;99.90
19044;DHT22;9654;52.302;8.120;2023-03-01T13:09:38;5.90;99.90
19044;DHT22;9654;52.302;8.120;2023-03-01T13:12:46;5.90;99.90
19044;DHT22;9654;52.302;8.120;2023-03-01T13:15:35;6.00;99.90
19044;DHT22;9654;52.302;8.120;2023-03-01T13:18:26;5.90;99.90
19044;DHT22;9654;52.302;8.120;2023-03-01T13:20:55;5.80;99.90
19044;DHT22;9654;52.302;8.120;2023-03-01T13:23:28;5.80;99.90
19044;DHT22;9654;52.302;8.120;2023-03-01T13:26:17;5.90;99.90
19044;DHT22;9654;52.302;8.120;2023-03-01T13:28:53;6.00;99.90
19044;DHT22;9654;52.302;8.120;2023-03-01T13:34:51;5.90;99.90
19044;DHT22;9654;52.302;8.120;2023-03-01T13:37:27;6.00;99.90
19044;DHT22;9654;52.302;8.120;2023-03-01T13:39:56;6.20;99.90
19044;DHT22;9654;52.302;8.120;2023-03-01T13:42:41;6.20;99.90
19044;DHT22;9654;52.302;8.120;2023-03-01T13:45:19;6.30;99.90
19044;DHT22;9654;52.302;8.120;2023-03-01T13:47:47;6.30;99.90
19044;DHT22;9654;52.302;8.120;2023-03-01T13:50:21;6.30;99.90
19044;DHT22;9654;52.302;8.120;2023-03-01T13:52:53;6.30;99.90
19044;DHT22;9654;52.302;8.120;2023-03-01T13:55:26;6.30;99.90
19044;DHT22;9654;52.302;8.120;2023-03-01T13:57:56;6.40;99.90
19044;DHT22;9654;52.302;8.120;2023-03-01T14:00:34;6.40;99.90
19044;DHT22;9654;52.302;8.120;2023-03-01T14:03:08;6.40;99.90
19044;DHT22;9654;52.302;8.120;2023-03-01T14:05:37;6.60;99.90
19044;DHT22;9654;52.302;8.120;2023-03-01T14:08:14;6.60;99.90
19044;DHT22;9654;52.302;8.120;2023-03-01T14:10:52;6.60;99.90
19044;DHT22;9654;52.302;8.120;2023-03-01T14:13:29;6.70;99.90
19044;DHT22;9654;52.302;8.120;2023-03-01T14:16:10;6.70;99.90
19044;DHT22;9654;52.302;8.120;2023-03-01T14:18:43;6.70;99.90
19044;DHT22;9654;52.302;8.120;2023-03-01T14:21:14;6.80;99.90
19044;DHT22;9654;52.302;8.120;2023-03-01T14:23:42;6.70;99.90
19044;DHT22;9654;52.302;8.120;2023-03-01T14:26:09;6.70;99.90
19044;DHT22;9654;52.302;8.120;2023-03-01T14:28:38;6.70;99.90
19044;DHT22;9654;52.302;8.120;2023-03-01T14:31:31;6.70;99.90
19044;DHT22;9654;52.302;8.120;2023-03-01T14:33:59;6.50;99.90
19044;DHT22;9654;52.302;8.120;2023-03-01T14:36:29;6.40;99.90
19044;DHT22;9654;52.302;8.120;2023-03-01T14:38:56;6.40;99.90
19044;DHT22;9654;52.302;8.120;2023-03-01T14:41:32;6.30;99.90
19044;DHT22;9654;52.302;8.120;2023-03-01T14:44:01;6.40;99.90
19044;DHT22;9654;52.302;8.120;2023-03-01T14:46:31;6.40;99.90
19044;DHT22;9654;52.302;8.120;2023-03-01T14:49:02;6.40;99.90
19044;DHT22;9654;52.302;8.120;2023-03-01T14:51:35;6.50;99.90
19044;DHT22;9654;52.302;8.120;2023-03-01T14:54:04;6.60;99.90
19044;DHT22;9654;52.302;8.120;2023-03-01T14:56:46;6.40;99.90
19044;DHT22;9654;52.302;8.120;2023-03-01T14:59:13;6.50;99.90
19044;DHT22;9654;52.302;8.120;2023-03-01T15:01:41;6.60;99.90
19044;DHT22;9654;52.302;8.120;2023-03-01T15:04:12;6.50;99.90
19044;DHT22;9654;52.302;8.120;2023-03-01T15:06:41;6.50;99.90
19044;DHT22;9654;52.302;8.120;2023-03-01T15:09:13;6.60;99.90
19044;DHT22;9654;52.302;8.120;2023-03-01T15:11:41;6.60;99.90
19044;DHT22;9654;52.302;8.120;2023-03-01T15:14:38;6.60;99.90
19044;DHT22;9654;52.302;8.120;2023-03-01T15:17:21;6.60;99.90
19044;DHT22;9654;52.302;8.120;2023-03-01T15:19:50;6.70;99.90
19044;DHT22;9654;52.302;8.120;2023-03-01T15:22:18;6.80;99.90
19044;DHT22;9654;52.302;8.120;2023-03-01T15:24:49;6.70;99.90
19044;DHT22;9654;52.302;8.120;2023-03-01T15:27:18;6.60;99.90
19044;DHT22;9654;52.302;8.120;2023-03-01T15:29:49;6.60;99.90
19044;DHT22;9654;52.302;8.120;2023-03-01T15:32:28;6.70;99.90
19044;DHT22;9654;52.302;8.120;2023-03-01T15:34:56;6.70;99.90
19044;DHT22;9654;52.302;8.120;2023-03-01T15:37:44;6.70;99.90
19044;DHT22;9654;52.302;8.120;2023-03-01T15:40:19;6.70;99.90
19044;DHT22;9654;52.302;8.120;2023-03-01T15:42:46;6.60;99.90
19044;DHT22;9654;52.302;8.120;2023-03-01T15:45:22;6.50;99.90
19044;DHT22;9654;52.302;8.120;2023-03-01T15:47:53;6.50;99.90
19044;DHT22;9654;52.302;8.120;2023-03-01T15:50:22;6.40;99.90
19044;DHT22;9654;52.302;8.120;2023-03-01T15:52:51;6.50;99.90
19044;DHT22;9654;52.302;8.120;2023-03-01T15:55:19;6.40;99.90
19044;DHT22;9654;52.302;8.120;2023-03-01T15:57:46;6.40;99.90
19044;DHT22;9654;52.302;8.120;2023-03-01T16:00:14;6.40;99.90
19044;DHT22;9654;52.302;8.120;2023-03-01T16:02:43;6.40;99.90
19044;DHT22;9654;52.302;8.120;2023-03-01T16:05:16;6.40;99.90
19044;DHT22;9654;52.302;8.120;2023-03-01T16:07:43;6.40;99.90
19044;DHT22;9654;52.302;8.120;2023-03-01T16:10:12;6.50;99.90
19044;DHT22;9654;52.302;8.120;2023-03-01T16:12:39;6.50;99.90
19044;DHT22;9654;52.302;8.120;2023-03-01T16:15:13;6.40;99.90
19044;DHT22;9654;52.302;8.120;2023-03-01T16:17:42;6.30;99.90
19044;DHT22;9654;52.302;8.120;2023-03-01T16:20:10;6.40;99.90
19044;DHT22;9654;52.302;8.120;2023-03-01T16:22:37;6.30;99.90
19044;DHT22;9654;52.302;8.120;2023-03-01T16:25:04;6.20;99.90
19044;DHT22;9654;52.302;8.120;2023-03-01T16:27:32;6.10;99.90
19044;DHT22;9654;52.302;8.120;2023-03-01T16:29:59;6.00;99.90